sensor_id;sensor_type;location;lat;lon;timestamp;temperature;humidity
38684;DHT22;24910;53.248;-6.134;2023-04-01T00:01:39;12.20;92.90
38684;DHT22;24910;53.248;-6.134;2023-04-01T00:04:08;12.20;92.90
38684;DHT22;24910;53.248;-6.134;2023-04-01T00:06:37;12.20;93.00
38684;DHT22;24910;53.248;-6.134;2023-04-01T00:09:06;12.20;93.00
38684;DHT22;24910;53.248;-6.134;2023-04-01T00:11:35;12.20;92.90
38684;DHT22;24910;53.248;-6.134;2023-04-01T00:14:05;12.20;92.90
38684;DHT22;24910;53.248;-6.134;2023-04-01T00:16:34;12.20;93.00
38684;DHT22;24910;53.248;-6.134;2023-04-01T00:19:05;12.20;93.00
38684;DHT22;24910;53.248;-6.134;2023-04-01T00:21:34;12.20;93.00
38684;DHT22;24910;53.248;-6.134;2023-04-01T00:24:04;12.20;92.90
38684;DHT22;24910;53.248;-6.134;2023-04-01T00:26:35;12.20;92.90
38684;DHT22;24910;53.248;-6.134;2023-04-01T00:29:04;12.20;92.90
38684;DHT22;24910;53.248;-6.134;2023-04-01T00:31:34;12.20;92.80
38684;DHT22;24910;53.248;-6.134;2023-04-01T00:34:05;12.20;92.90
38684;DHT22;24910;53.248;-6.134;2023-04-01T00:36:34;12.20;92.90
38684;DHT22;24910;53.248;-6.134;2023-04-01T00:39:06;12.20;92.90
38684;DHT22;24910;53.248;-6.134;2023-04-01T00:41:35;12.20;92.90
38684;DHT22;24910;53.248;-6.134;2023-04-01T00:44:19;12.10;92.90
38684;DHT22;24910;53.248;-6.134;2023-04-01T00:46:48;12.10;93.00
38684;DHT22;24910;53.248;-6.134;2023-04-01T00:49:21;12.10;92.90
38684;DHT22;24910;53.248;-6.134;2023-04-01T00:51:54;12.10;92.90
38684;DHT22;24910;53.248;-6.134;2023-04-01T00:54:25;12.10;93.00
38684;DHT22;24910;53.248;-6.134;2023-04-01T00:56:55;12.10;93.00
38684;DHT22;24910;53.248;-6.134;2023-04-01T00:59:28;12.10;93.00
38684;DHT22;24910;53.248;-6.134;2023-04-01T01:01:58;12.20;92.90
38684;DHT22;24910;53.248;-6.134;2023-04-01T01:04:31;12.10;92.90
38684;DHT22;24910;53.248;-6.134;2023-04-01T01:07:12;12.10;92.90
38684;DHT22;24910;53.248;-6.134;2023-04-01T01:09:52;12.10;92.90
38684;DHT22;24910;53.248;-6.134;2023-04-01T01:12:26;12.20;92.90
38684;DHT22;24910;53.248;-6.134;2023-04-01T01:15:06;12.10;92.90
38684;DHT22;24910;53.248;-6.134;2023-04-01T01:17:48;12.10;92.90
38684;DHT22;24910;53.248;-6.134;2023-04-01T01:20:40;12.10;92.90
38684;DHT22;24910;53.248;-6.134;2023-04-01T01:26:45;12.20;92.90
38684;DHT22;24910;53.248;-6.134;2023-04-01T01:29:34;12.20;92.80
38684;DHT22;24910;53.248;-6.134;2023-04-01T01:32:30;12.10;92.80
38684;DHT22;24910;53.248;-6.134;2023-04-01T01:35:16;12.10;92.80
38684;DHT22;24910;53.248;-6.134;2023-04-01T01:37:50;12.10;92.90
38684;DHT22;24910;53.248;-6.134;2023-04-01T01:40:21;12.10;92.90
38684;DHT22;24910;53.248;-6.134;2023-04-01T01:42:55;12.10;92.90
38684;DHT22;24910;53.248;-6.134;2023-04-01T01:45:26;12.00;92.90
38684;DHT22;24910;53.248;-6.134;2023-04-01T01:47:56;12.10;93.00
38684;DHT22;24910;53.248;-6.134;2023-04-01T01:50:29;12.10;92.90
38684;DHT22;24910;53.248;-6.134;2023-04-01T01:53:02;12.10;92.90
38684;DHT22;24910;53.248;-6.134;2023-04-01T01:55:33;12.10;92.90
38684;DHT22;24910;53.248;-6.134;2023-04-01T01:58:05;12.10;92.80
38684;DHT22;24910;53.248;-6.134;2023-04-01T02:00:39;12.10;92.80
38684;DHT22;24910;53.248;-6.134;2023-04-01T02:03:10;12.10;92.70
38684;DHT22;24910;53.248;-6.134;2023-04-01T02:05:41;12.10;92.80
38684;DHT22;24910;53.248;-6.134;2023-04-01T02:08:13;12.10;92.80
38684;DHT22;24910;53.248;-6.134;2023-04-01T02:10:48;12.10;92.90
38684;DHT22;24910;53.248;-6.134;2023-04-01T02:13:26;12.10;92.80
38684;DHT22;24910;53.248;-6.134;2023-04-01T02:16:00;12.10;92.90
38684;DHT22;24910;53.248;-6.134;2023-04-01T02:18:34;12.10;92.90
38684;DHT22;24910;53.248;-6.134;2023-04-01T02:21:07;12.00;92.90
38684;DHT22;24910;53.248;-6.134;2023-04-01T02:23:38;12.00;93.00
38684;DHT22;24910;53.248;-6.134;2023-04-01T02:26:08;12.00;93.00
38684;DHT22;24910;53.248;-6.134;2023-04-01T02:28:38;12.00;93.00
38684;DHT22;24910;53.248;-6.134;2023-04-01T02:31:10;12.00;92.90
38684;DHT22;24910;53.248;-6.134;2023-04-01T02:33:40;12.00;92.90
38684;DHT22;24910;53.248;-6.134;2023-04-01T02:36:13;12.00;93.00
38684;DHT22;24910;53.248;-6.134;2023-04-01T02:38:44;12.00;93.00
38684;DHT22;24910;53.248;-6.134;2023-04-01T02:41:13;12.00;93.00
38684;DHT22;24910;53.248;-6.134;2023-04-01T02:43:42;12.00;93.00
38684;DHT22;24910;53.248;-6.134;2023-04-01T02:46:14;12.00;93.00
38684;DHT22;24910;53.248;-6.134;2023-04-01T02:48:44;12.00;93.00
38684;DHT22;24910;53.248;-6.134;2023-04-01T02:51:14;11.90;93.00
38684;DHT22;24910;53.248;-6.134;2023-04-01T02:53:45;11.90;93.10
38684;DHT22;24910;53.248;-6.134;2023-04-01T02:56:16;11.90;93.10
38684;DHT22;24910;53.248;-6.134;2023-04-01T02:58:47;11.90;93.10
38684;DHT22;24910;53.248;-6.134;2023-04-01T03:01:16;11.90;93.00
38684;DHT22;24910;53.248;-6.134;2023-04-01T03:03:45;11.90;93.10
38684;DHT22;24910;53.248;-6.134;2023-04-01T03:06:16;11.90;93.10
38684;DHT22;24910;53.248;-6.134;2023-04-01T03:08:47;11.90;93.10
38684;DHT22;24910;53.248;-6.134;2023-04-01T03:11:16;11.90;93.10
38684;DHT22;24910;53.248;-6.134;2023-04-01T03:13:45;11.90;93.00
38684;DHT22;24910;53.248;-6.134;2023-04-01T03:16:14;11.90;93.00
38684;DHT22;24910;53.248;-6.134;2023-04-01T03:18:43;11.90;93.00
38684;DHT22;24910;53.248;-6.134;2023-04-01T03:21:16;11.90;93.00
38684;DHT22;24910;53.248;-6.134;2023-04-01T03:23:45;12.00;93.10
38684;DHT22;24910;53.248;-6.134;2023-04-01T03:26:14;11.90;93.00
38684;DHT22;24910;53.248;-6.134;2023-04-01T03:28:44;11.90;93.10
38684;DHT22;24910;53.248;-6.134;2023-04-01T03:31:13;11.90;93.00
38684;DHT22;24910;53.248;-6.134;2023-04-01T03:33:50;12.00;93.00
38684;DHT22;24910;53.248;-6.134;2023-04-01T03:36:21;11.90;93.00
38684;DHT22;24910;53.248;-6.134;2023-04-01T03:38:50;11.90;93.00
38684;DHT22;24910;53.248;-6.134;2023-04-01T03:41:25;11.90;93.00
38684;DHT22;24910;53.248;-6.134;2023-04-01T03:43:55;11.90;93.10
38684;DHT22;24910;53.248;-6.134;2023-04-01T03:46:24;11.90;93.00
38684;DHT22;24910;53.248;-6.134;2023-04-01T03:48:53;11.90;93.00
38684;DHT22;24910;53.248;-6.134;2023-04-01T03:51:24;12.00;93.00
38684;DHT22;24910;53.248;-6.134;2023-04-01T03:53:55;12.00;93.00
38684;DHT22;24910;53.248;-6.134;2023-04-01T03:56:24;12.00;93.00
38684;DHT22;24910;53.248;-6.134;2023-04-01T03:58:53;12.00;93.00
38684;DHT22;24910;53.248;-6.134;2023-04-01T04:01:23;12.00;93.00
38684;DHT22;24910;53.248;-6.134;2023-04-01T04:03:55;12.00;93.10
38684;DHT22;24910;53.248;-6.134;2023-04-01T04:06:27;11.90;93.00
38684;DHT22;24910;53.248;-6.134;2023-04-01T04:08:56;11.90;93.10
38684;DHT22;24910;53.248;-6.134;2023-04-01T04:11:26;11.90;93.10
38684;DHT22;24910;53.248;-6.134;2023-04-01T04:13:56;11.90;93.10
38684;DHT22;24910;53.248;-6.134;2023-04-01T04:16:25;11.90;93.10
38684;DHT22;24910;53.248;-6.134;2023-04-01T04:19:00;11.90;93.10
38684;DHT22;24910;53.248;-6.134;2023-04-01T04:21:31;11.80;93.10
38684;DHT22;24910;53.248;-6.134;2023-04-01T04:24:00;11.90;93.10
38684;DHT22;24910;53.248;-6.134;2023-04-01T04:26:50;11.90;93.10
38684;DHT22;24910;53.248;-6.134;2023-04-01T04:29:19;11.90;93.00
38684;DHT22;24910;53.248;-6.134;2023-04-01T04:31:48;11.90;93.00
38684;DHT22;24910;53.248;-6.134;2023-04-01T04:34:18;11.80;93.00
38684;DHT22;24910;53.248;-6.134;2023-04-01T04:36:49;11.90;93.00
38684;DHT22;24910;53.248;-6.134;2023-04-01T04:39:18;11.90;93.00
38684;DHT22;24910;53.248;-6.134;2023-04-01T04:41:47;11.80;93.00
38684;DHT22;24910;53.248;-6.134;2023-04-01T04:44:17;11.80;92.90
38684;DHT22;24910;53.248;-6.134;2023-04-01T04:46:46;11.80;92.90
38684;DHT22;24910;53.248;-6.134;2023-04-01T04:49:16;11.80;92.90
38684;DHT22;24910;53.248;-6.134;2023-04-01T04:51:45;11.80;92.90
38684;DHT22;24910;53.248;-6.134;2023-04-01T04:54:17;11.80;93.00
38684;DHT22;24910;53.248;-6.134;2023-04-01T04:56:55;11.80;93.00
38684;DHT22;24910;53.248;-6.134;2023-04-01T04:59:26;11.80;93.00
38684;DHT22;24910;53.248;-6.134;2023-04-01T05:02:04;11.80;93.00
38684;DHT22;24910;53.248;-6.134;2023-04-01T05:04:34;11.80;93.00
38684;DHT22;24910;53.248;-6.134;2023-04-01T05:07:06;11.80;93.00
38684;DHT22;24910;53.248;-6.134;2023-04-01T05:09:37;11.80;93.00
38684;DHT22;24910;53.248;-6.134;2023-04-01T05:12:06;11.70;93.00
38684;DHT22;24910;53.248;-6.134;2023-04-01T05:14:53;11.70;93.00
38684;DHT22;24910;53.248;-6.134;2023-04-01T05:17:22;11.80;93.10
38684;DHT22;24910;53.248;-6.134;2023-04-01T05:19:52;11.70;93.00
38684;DHT22;24910;53.248;-6.134;2023-04-01T05:22:21;11.80;93.00
38684;DHT22;24910;53.248;-6.134;2023-04-01T05:24:52;11.80;93.00
38684;DHT22;24910;53.248;-6.134;2023-04-01T05:27:21;11.80;93.00
38684;DHT22;24910;53.248;-6.134;2023-04-01T05:29:50;11.70;93.00
38684;DHT22;24910;53.248;-6.134;2023-04-01T05:32:38;11.80;93.10
38684;DHT22;24910;53.248;-6.134;2023-04-01T05:35:07;11.80;93.00
38684;DHT22;24910;53.248;-6.134;2023-04-01T05:37:37;11.80;93.00
38684;DHT22;24910;53.248;-6.134;2023-04-01T05:40:09;11.80;93.00
38684;DHT22;24910;53.248;-6.134;2023-04-01T05:42:38;11.80;93.00
38684;DHT22;24910;53.248;-6.134;2023-04-01T05:45:08;11.80;93.00
38684;DHT22;24910;53.248;-6.134;2023-04-01T05:47:59;11.70;93.00
38684;DHT22;24910;53.248;-6.134;2023-04-01T05:50:32;11.70;93.10
38684;DHT22;24910;53.248;-6.134;2023-04-01T05:53:02;11.70;92.90
38684;DHT22;24910;53.248;-6.134;2023-04-01T05:55:34;11.70;93.00
38684;DHT22;24910;53.248;-6.134;2023-04-01T05:58:06;11.70;93.00
38684;DHT22;24910;53.248;-6.134;2023-04-01T06:00:38;11.70;93.00
38684;DHT22;24910;53.248;-6.134;2023-04-01T06:03:07;11.70;93.10
38684;DHT22;24910;53.248;-6.134;2023-04-01T06:05:39;11.70;93.00
38684;DHT22;24910;53.248;-6.134;2023-04-01T06:08:13;11.70;93.10
38684;DHT22;24910;53.248;-6.134;2023-04-01T06:11:04;11.70;93.10
38684;DHT22;24910;53.248;-6.134;2023-04-01T06:13:56;11.70;93.10
38684;DHT22;24910;53.248;-6.134;2023-04-01T06:16:39;11.70;93.10
38684;DHT22;24910;53.248;-6.134;2023-04-01T06:19:22;11.70;93.10
38684;DHT22;24910;53.248;-6.134;2023-04-01T06:22:12;11.70;93.10
38684;DHT22;24910;53.248;-6.134;2023-04-01T06:25:07;11.70;93.10
38684;DHT22;24910;53.248;-6.134;2023-04-01T06:28:14;11.70;93.10
38684;DHT22;24910;53.248;-6.134;2023-04-01T06:30:52;11.70;93.20
38684;DHT22;24910;53.248;-6.134;2023-04-01T06:33:42;11.70;93.10
38684;DHT22;24910;53.248;-6.134;2023-04-01T06:36:39;11.70;93.20
38684;DHT22;24910;53.248;-6.134;2023-04-01T06:42:37;11.70;93.20
38684;DHT22;24910;53.248;-6.134;2023-04-01T06:45:36;11.70;93.20
38684;DHT22;24910;53.248;-6.134;2023-04-01T06:48:42;11.70;93.20
38684;DHT22;24910;53.248;-6.134;2023-04-01T06:51:41;11.70;93.10
38684;DHT22;24910;53.248;-6.134;2023-04-01T06:54:33;11.60;93.10
38684;DHT22;24910;53.248;-6.134;2023-04-01T06:57:13;11.50;93.20
38684;DHT22;24910;53.248;-6.134;2023-04-01T06:59:44;11.30;93.40
38684;DHT22;24910;53.248;-6.134;2023-04-01T07:02:22;11.30;93.50
38684;DHT22;24910;53.248;-6.134;2023-04-01T07:04:54;11.20;93.60
38684;DHT22;24910;53.248;-6.134;2023-04-01T07:07:26;11.20;93.70
38684;DHT22;24910;53.248;-6.134;2023-04-01T07:10:05;11.20;93.80
38684;DHT22;24910;53.248;-6.134;2023-04-01T07:13:02;11.20;93.70
38684;DHT22;24910;53.248;-6.134;2023-04-01T07:16:08;11.10;93.80
38684;DHT22;24910;53.248;-6.134;2023-04-01T07:18:47;11.00;93.80
38684;DHT22;24910;53.248;-6.134;2023-04-01T07:21:23;11.00;93.90
38684;DHT22;24910;53.248;-6.134;2023-04-01T07:23:59;11.10;94.00
38684;DHT22;24910;53.248;-6.134;2023-04-01T07:26:53;11.00;93.90
38684;DHT22;24910;53.248;-6.134;2023-04-01T07:29:26;11.00;94.00
38684;DHT22;24910;53.248;-6.134;2023-04-01T07:32:16;11.00;94.00
38684;DHT22;24910;53.248;-6.134;2023-04-01T07:35:00;11.00;94.10
38684;DHT22;24910;53.248;-6.134;2023-04-01T07:37:34;11.00;94.10
38684;DHT22;24910;53.248;-6.134;2023-04-01T07:40:15;11.00;94.00
38684;DHT22;24910;53.248;-6.134;2023-04-01T07:42:56;11.00;94.10
38684;DHT22;24910;53.248;-6.134;2023-04-01T07:45:31;11.00;94.10
38684;DHT22;24910;53.248;-6.134;2023-04-01T07:48:13;11.00;94.10
38684;DHT22;24910;53.248;-6.134;2023-04-01T07:50:52;10.90;94.10
38684;DHT22;24910;53.248;-6.134;2023-04-01T07:53:30;10.90;94.20
38684;DHT22;24910;53.248;-6.134;2023-04-01T07:56:06;10.90;94.30
38684;DHT22;24910;53.248;-6.134;2023-04-01T07:58:52;10.90;94.30
38684;DHT22;24910;53.248;-6.134;2023-04-01T08:01:50;11.00;94.30
38684;DHT22;24910;53.248;-6.134;2023-04-01T08:04:28;11.00;94.30
38684;DHT22;24910;53.248;-6.134;2023-04-01T08:07:07;11.00;94.30
38684;DHT22;24910;53.248;-6.134;2023-04-01T08:09:47;11.10;94.30
38684;DHT22;24910;53.248;-6.134;2023-04-01T08:12:51;11.10;94.30
38684;DHT22;24910;53.248;-6.134;2023-04-01T08:15:49;11.10;94.20
38684;DHT22;24910;53.248;-6.134;2023-04-01T08:18:41;11.10;94.30
38684;DHT22;24910;53.248;-6.134;2023-04-01T08:21:15;11.10;94.30
38684;DHT22;24910;53.248;-6.134;2023-04-01T08:23:49;11.10;94.30
38684;DHT22;24910;53.248;-6.134;2023-04-01T08:26:26;11.10;94.30
38684;DHT22;24910;53.248;-6.134;2023-04-01T08:29:04;11.10;94.20
38684;DHT22;24910;53.248;-6.134;2023-04-01T08:31:38;11.00;94.20
38684;DHT22;24910;53.248;-6.134;2023-04-01T08:34:13;11.00;94.30
38684;DHT22;24910;53.248;-6.134;2023-04-01T08:36:47;11.00;94.30
38684;DHT22;24910;53.248;-6.134;2023-04-01T08:39:24;11.00;94.40
38684;DHT22;24910;53.248;-6.134;2023-04-01T08:42:23;11.00;94.40
38684;DHT22;24910;53.248;-6.134;2023-04-01T08:48:36;11.10;94.40
38684;DHT22;24910;53.248;-6.134;2023-04-01T08:51:39;11.10;94.40
38684;DHT22;24910;53.248;-6.134;2023-04-01T08:57:18;11.00;94.30
38684;DHT22;24910;53.248;-6.134;2023-04-01T09:00:25;11.00;94.30
38684;DHT22;24910;53.248;-6.134;2023-04-01T09:03:24;11.10;94.30
38684;DHT22;24910;53.248;-6.134;2023-04-01T09:06:35;11.00;94.30
38684;DHT22;24910;53.248;-6.134;2023-04-01T09:12:31;11.10;94.30
38684;DHT22;24910;53.248;-6.134;2023-04-01T09:15:32;11.10;94.30
38684;DHT22;24910;53.248;-6.134;2023-04-01T09:18:29;11.10;94.30
38684;DHT22;24910;53.248;-6.134;2023-04-01T09:24:22;11.00;94.20
38684;DHT22;24910;53.248;-6.134;2023-04-01T09:27:04;11.00;94.30
38684;DHT22;24910;53.248;-6.134;2023-04-01T09:32:53;11.00;94.30
38684;DHT22;24910;53.248;-6.134;2023-04-01T09:35:38;11.00;94.20
38684;DHT22;24910;53.248;-6.134;2023-04-01T09:38:21;11.10;94.30
38684;DHT22;24910;53.248;-6.134;2023-04-01T09:40:56;11.10;94.30
38684;DHT22;24910;53.248;-6.134;2023-04-01T09:44:01;11.20;94.30
38684;DHT22;24910;53.248;-6.134;2023-04-01T09:46:56;11.30;94.20
38684;DHT22;24910;53.248;-6.134;2023-04-01T09:49:42;11.30;94.10
38684;DHT22;24910;53.248;-6.134;2023-04-01T09:52:24;11.30;94.10
38684;DHT22;24910;53.248;-6.134;2023-04-01T09:55:14;11.30;94.10
38684;DHT22;24910;53.248;-6.134;2023-04-01T10:01:34;11.40;94.00
38684;DHT22;24910;53.248;-6.134;2023-04-01T10:10:54;11.50;94.00
38684;DHT22;24910;53.248;-6.134;2023-04-01T10:17:07;11.50;93.80
38684;DHT22;24910;53.248;-6.134;2023-04-01T10:20:06;11.50;93.80
38684;DHT22;24910;53.248;-6.134;2023-04-01T10:23:07;11.50;93.70
38684;DHT22;24910;53.248;-6.134;2023-04-01T10:25:58;11.50;93.60
38684;DHT22;24910;53.248;-6.134;2023-04-01T10:28:56;11.40;93.50
38684;DHT22;24910;53.248;-6.134;2023-04-01T10:32:07;11.40;93.50
38684;DHT22;24910;53.248;-6.134;2023-04-01T10:38:20;11.30;93.60
38684;DHT22;24910;53.248;-6.134;2023-04-01T10:41:21;11.30;93.60
38684;DHT22;24910;53.248;-6.134;2023-04-01T10:44:22;11.30;93.50
38684;DHT22;24910;53.248;-6.134;2023-04-01T10:47:25;11.30;93.60
38684;DHT22;24910;53.248;-6.134;2023-04-01T10:50:39;11.40;93.70
38684;DHT22;24910;53.248;-6.134;2023-04-01T10:53:33;11.40;93.70
38684;DHT22;24910;53.248;-6.134;2023-04-01T10:56:34;11.50;93.70
38684;DHT22;24910;53.248;-6.134;2023-04-01T11:00:01;11.70;93.80
38684;DHT22;24910;53.248;-6.134;2023-04-01T11:03:03;11.80;93.70
38684;DHT22;24910;53.248;-6.134;2023-04-01T11:06:51;12.00;93.60
38684;DHT22;24910;53.248;-6.134;2023-04-01T11:22:08;12.30;93.30
38684;DHT22;24910;53.248;-6.134;2023-04-01T11:28:01;12.40;93.20
38684;DHT22;24910;53.248;-6.134;2023-04-01T11:30:52;12.30;93.20
38684;DHT22;24910;53.248;-6.134;2023-04-01T11:33:27;12.20;93.10
38684;DHT22;24910;53.248;-6.134;2023-04-01T11:36:18;12.20;93.10
38684;DHT22;24910;53.248;-6.134;2023-04-01T11:39:14;12.10;93.20
38684;DHT22;24910;53.248;-6.134;2023-04-01T11:42:19;12.00;93.10
38684;DHT22;24910;53.248;-6.134;2023-04-01T11:45:19;12.00;93.10
38684;DHT22;24910;53.248;-6.134;2023-04-01T11:48:13;12.00;93.20
38684;DHT22;24910;53.248;-6.134;2023-04-01T11:50:57;12.00;93.20
38684;DHT22;24910;53.248;-6.134;2023-04-01T11:53:38;12.20;93.20
38684;DHT22;24910;53.248;-6.134;2023-04-01T11:56:27;12.40;93.20
38684;DHT22;24910;53.248;-6.134;2023-04-01T11:59:28;12.40;93.10
38684;DHT22;24910;53.248;-6.134;2023-04-01T12:02:03;12.60;92.90
38684;DHT22;24910;53.248;-6.134;2023-04-01T12:04:54;12.60;92.80
38684;DHT22;24910;53.248;-6.134;2023-04-01T12:10:38;12.50;92.50
38684;DHT22;24910;53.248;-6.134;2023-04-01T12:13:20;12.50;92.60
38684;DHT22;24910;53.248;-6.134;2023-04-01T12:18:57;12.70;92.50
38684;DHT22;24910;53.248;-6.134;2023-04-01T12:21:34;12.70;92.20
38684;DHT22;24910;53.248;-6.134;2023-04-01T12:24:35;12.70;92.20
38684;DHT22;24910;53.248;-6.134;2023-04-01T12:27:38;12.60;92.00
38684;DHT22;24910;53.248;-6.134;2023-04-01T12:30:26;12.50;91.90
38684;DHT22;24910;53.248;-6.134;2023-04-01T12:33:10;12.50;91.90
38684;DHT22;24910;53.248;-6.134;2023-04-01T12:35:53;12.60;91.90
38684;DHT22;24910;53.248;-6.134;2023-04-01T12:38:33;12.70;91.80
38684;DHT22;24910;53.248;-6.134;2023-04-01T12:41:14;12.80;91.80
38684;DHT22;24910;53.248;-6.134;2023-04-01T12:44:16;13.00;91.70
38684;DHT22;24910;53.248;-6.134;2023-04-01T12:47:06;13.00;91.20
38684;DHT22;24910;53.248;-6.134;2023-04-01T12:50:02;13.00;91.10
38684;DHT22;24910;53.248;-6.134;2023-04-01T12:52:49;13.00;90.70
38684;DHT22;24910;53.248;-6.134;2023-04-01T12:55:36;12.90;90.70
38684;DHT22;24910;53.248;-6.134;2023-04-01T12:58:20;13.00;90.70
38684;DHT22;24910;53.248;-6.134;2023-04-01T13:01:07;13.20;90.70
38684;DHT22;24910;53.248;-6.134;2023-04-01T13:06:49;13.30;90.20
38684;DHT22;24910;53.248;-6.134;2023-04-01T13:09:30;13.40;90.00
38684;DHT22;24910;53.248;-6.134;2023-04-01T13:12:27;13.30;89.40
38684;DHT22;24910;53.248;-6.134;2023-04-01T13:15:23;13.30;89.30
38684;DHT22;24910;53.248;-6.134;2023-04-01T13:17:58;13.30;89.20
38684;DHT22;24910;53.248;-6.134;2023-04-01T13:20:41;13.30;88.90
38684;DHT22;24910;53.248;-6.134;2023-04-01T13:23:24;13.40;88.80
38684;DHT22;24910;53.248;-6.134;2023-04-01T13:26:05;13.40;88.60
38684;DHT22;24910;53.248;-6.134;2023-04-01T13:28:49;13.30;87.80
38684;DHT22;24910;53.248;-6.134;2023-04-01T13:31:33;13.20;87.40
38684;DHT22;24910;53.248;-6.134;2023-04-01T13:34:17;13.10;87.30
38684;DHT22;24910;53.248;-6.134;2023-04-01T13:36:58;13.10;87.30
38684;DHT22;24910;53.248;-6.134;2023-04-01T13:39:41;13.10;87.00
38684;DHT22;24910;53.248;-6.134;2023-04-01T13:42:16;13.00;86.60
38684;DHT22;24910;53.248;-6.134;2023-04-01T13:44:53;13.00;86.40
38684;DHT22;24910;53.248;-6.134;2023-04-01T13:47:55;13.00;86.30
38684;DHT22;24910;53.248;-6.134;2023-04-01T13:53:57;13.10;85.90
38684;DHT22;24910;53.248;-6.134;2023-04-01T13:56:34;13.00;85.40
38684;DHT22;24910;53.248;-6.134;2023-04-01T13:59:31;13.00;85.60
38684;DHT22;24910;53.248;-6.134;2023-04-01T14:02:27;13.00;85.00
38684;DHT22;24910;53.248;-6.134;2023-04-01T14:05:32;12.80;84.20
38684;DHT22;24910;53.248;-6.134;2023-04-01T14:08:20;12.80;84.20
38684;DHT22;24910;53.248;-6.134;2023-04-01T14:11:05;12.80;84.10
38684;DHT22;24910;53.248;-6.134;2023-04-01T14:13:44;12.90;83.90
38684;DHT22;24910;53.248;-6.134;2023-04-01T14:16:55;12.90;83.60
38684;DHT22;24910;53.248;-6.134;2023-04-01T14:19:40;12.90;83.30
38684;DHT22;24910;53.248;-6.134;2023-04-01T14:22:23;13.00;84.00
38684;DHT22;24910;53.248;-6.134;2023-04-01T14:25:17;13.00;82.60
38684;DHT22;24910;53.248;-6.134;2023-04-01T14:27:57;12.90;81.60
38684;DHT22;24910;53.248;-6.134;2023-04-01T14:30:46;12.90;81.60
38684;DHT22;24910;53.248;-6.134;2023-04-01T14:33:34;13.00;81.10
38684;DHT22;24910;53.248;-6.134;2023-04-01T14:36:33;12.90;80.70
38684;DHT22;24910;53.248;-6.134;2023-04-01T14:39:20;12.80;80.00
38684;DHT22;24910;53.248;-6.134;2023-04-01T14:42:03;12.70;80.20
38684;DHT22;24910;53.248;-6.134;2023-04-01T14:45:18;12.70;80.50
38684;DHT22;24910;53.248;-6.134;2023-04-01T14:47:50;12.60;80.90
38684;DHT22;24910;53.248;-6.134;2023-04-01T14:50:23;12.60;81.30
38684;DHT22;24910;53.248;-6.134;2023-04-01T14:52:59;12.60;81.40
38684;DHT22;24910;53.248;-6.134;2023-04-01T14:55:49;12.50;81.20
38684;DHT22;24910;53.248;-6.134;2023-04-01T14:58:20;12.40;81.20
38684;DHT22;24910;53.248;-6.134;2023-04-01T15:00:59;12.40;81.30
38684;DHT22;24910;53.248;-6.134;2023-04-01T15:03:31;12.30;81.30
38684;DHT22;24910;53.248;-6.134;2023-04-01T15:06:26;12.30;81.20
38684;DHT22;24910;53.248;-6.134;2023-04-01T15:09:04;12.20;81.00
38684;DHT22;24910;53.248;-6.134;2023-04-01T15:11:43;12.30;81.20
38684;DHT22;24910;53.248;-6.134;2023-04-01T15:14:38;12.40;81.50
38684;DHT22;24910;53.248;-6.134;2023-04-01T15:17:27;12.40;81.50
38684;DHT22;24910;53.248;-6.134;2023-04-01T15:20:14;12.40;81.40
38684;DHT22;24910;53.248;-6.134;2023-04-01T15:23:06;12.40;81.30
38684;DHT22;24910;53.248;-6.134;2023-04-01T15:25:51;12.40;81.30
38684;DHT22;24910;53.248;-6.134;2023-04-01T15:28:30;12.50;81.30
38684;DHT22;24910;53.248;-6.134;2023-04-01T15:31:08;12.60;82.30
38684;DHT22;24910;53.248;-6.134;2023-04-01T15:33:48;12.60;81.50
38684;DHT22;24910;53.248;-6.134;2023-04-01T15:36:34;12.60;81.40
38684;DHT22;24910;53.248;-6.134;2023-04-01T15:39:13;12.60;81.40
38684;DHT22;24910;53.248;-6.134;2023-04-01T15:41:53;12.60;81.40
38684;DHT22;24910;53.248;-6.134;2023-04-01T15:44:38;12.50;81.10
38684;DHT22;24910;53.248;-6.134;2023-04-01T15:47:31;12.40;81.10
38684;DHT22;24910;53.248;-6.134;2023-04-01T15:53:15;12.40;81.20
38684;DHT22;24910;53.248;-6.134;2023-04-01T15:55:49;12.50;81.80
38684;DHT22;24910;53.248;-6.134;2023-04-01T15:58:35;12.50;82.10
38684;DHT22;24910;53.248;-6.134;2023-04-01T16:01:18;12.50;82.30
38684;DHT22;24910;53.248;-6.134;2023-04-01T16:03:57;12.50;82.50
38684;DHT22;24910;53.248;-6.134;2023-04-01T16:06:48;12.40;82.80
38684;DHT22;24910;53.248;-6.134;2023-04-01T16:09:42;12.30;83.20
38684;DHT22;24910;53.248;-6.134;2023-04-01T16:12:17;12.20;83.70
38684;DHT22;24910;53.248;-6.134;2023-04-01T16:14:56;12.20;84.10
38684;DHT22;24910;53.248;-6.134;2023-04-01T16:17:40;12.20;84.50
38684;DHT22;24910;53.248;-6.134;2023-04-01T16:20:19;12.20;84.80
38684;DHT22;24910;53.248;-6.134;2023-04-01T16:22:55;12.00;85.10
38684;DHT22;24910;53.248;-6.134;2023-04-01T16:25:32;11.90;86.40
38684;DHT22;24910;53.248;-6.134;2023-04-01T16:28:14;11.90;86.00
38684;DHT22;24910;53.248;-6.134;2023-04-01T16:30:56;11.90;86.30
38684;DHT22;24910;53.248;-6.134;2023-04-01T16:33:37;11.90;86.30
38684;DHT22;24910;53.248;-6.134;2023-04-01T16:36:13;11.90;86.40
38684;DHT22;24910;53.248;-6.134;2023-04-01T16:39:06;12.00;86.60
38684;DHT22;24910;53.248;-6.134;2023-04-01T16:41:41;12.00;86.70
38684;DHT22;24910;53.248;-6.134;2023-04-01T16:44:20;12.00;86.90
38684;DHT22;24910;53.248;-6.134;2023-04-01T16:46:52;12.00;87.20
38684;DHT22;24910;53.248;-6.134;2023-04-01T16:49:35;11.90;87.50
38684;DHT22;24910;53.248;-6.134;2023-04-01T16:52:15;11.90;87.80
38684;DHT22;24910;53.248;-6.134;2023-04-01T16:54:50;11.80;88.00
38684;DHT22;24910;53.248;-6.134;2023-04-01T16:57:25;11.70;88.40
38684;DHT22;24910;53.248;-6.134;2023-04-01T17:00:00;11.60;88.80
38684;DHT22;24910;53.248;-6.134;2023-04-01T17:02:37;11.60;89.20
38684;DHT22;24910;53.248;-6.134;2023-04-01T17:05:08;11.50;90.10
38684;DHT22;24910;53.248;-6.134;2023-04-01T17:07:48;11.50;89.80
38684;DHT22;24910;53.248;-6.134;2023-04-01T17:10:41;11.50;90.00
38684;DHT22;24910;53.248;-6.134;2023-04-01T17:13:34;11.50;90.10
38684;DHT22;24910;53.248;-6.134;2023-04-01T17:16:21;11.50;90.00
38684;DHT22;24910;53.248;-6.134;2023-04-01T17:19:02;11.50;90.10
38684;DHT22;24910;53.248;-6.134;2023-04-01T17:21:47;11.40;90.20
38684;DHT22;24910;53.248;-6.134;2023-04-01T17:24:32;11.40;90.30
38684;DHT22;24910;53.248;-6.134;2023-04-01T17:27:18;11.40;90.40
38684;DHT22;24910;53.248;-6.134;2023-04-01T17:30:08;11.30;90.40
38684;DHT22;24910;53.248;-6.134;2023-04-01T17:32:53;11.30;90.50
38684;DHT22;24910;53.248;-6.134;2023-04-01T17:35:30;11.30;90.50
38684;DHT22;24910;53.248;-6.134;2023-04-01T17:38:11;11.30;90.50
38684;DHT22;24910;53.248;-6.134;2023-04-01T17:40:52;11.30;90.60
38684;DHT22;24910;53.248;-6.134;2023-04-01T17:43:32;11.40;90.70
38684;DHT22;24910;53.248;-6.134;2023-04-01T17:46:19;11.40;90.70
38684;DHT22;24910;53.248;-6.134;2023-04-01T17:48:59;11.40;90.70
38684;DHT22;24910;53.248;-6.134;2023-04-01T17:51:38;11.40;90.80